Decoded Metar for LWSK (SKOPJE in FORMER MACEDONIA) (IATA:SKP) | Meteo·Mobile Aviation Weather
aviador You're here:

LWSK Decoded Metar

SKOPJE in FORMER MACEDONIA
Report Time2018-10-23 01:30:00
UTC Time2018-10-23 01:41:12
Flight Rules vfr VFR
Wind040° at 02 kt
W.Decomp.*RWY 34: 1.1 kt HW 1.7 kt RCW
W.Rank040° ranks 4
Current wind is below 040° avg. (4.7)
Visibility9999 m
Phenomena:N/A
Clouds:Broken 050 Hf
Overcast 073 Hf
Expected CloudBase > 800 ft AGL from Temp-Dew spread
Ceiling5,000 ft
Temp11°C (ISA -2)
Dew Point09°C (88% RH)
AAT10.1°C
QNH1020 hPa
Density Alt413 ft
Elevation784 ft
Report Wrong Elevation
Raw Report
METAR LWSK 230130Z 04002KT 9999 BKN050 OVC073 11/09 Q1020 NOSIG=

Extra information for LWSK:More info

Metar Taf Metar & Taf Last 4 Metars F.Rules Stats Wind Profile Meteogram Temp Stats Airport Information Weather charts Add Link Nearby VenuesMetar ALERT Operation Metar Decoded Social comments

Airport Page